Aeroporto :
LOGIN :

Iscrizione | Disclaimer

   EN    FR    IT 

 










Sommario :    VFR   VFR Marginale   IFR   IFR Intensivo   IFR Molto Intensivo
Visibilità : 
Base nubi : 
>= 8 km
>= 3000ft
5 / 8 km
1000 / 3000 ft
1500m / 5 km
500 / 1000 ft
800 / 1500m
200 / 500 ft
< 800m
< 200 ft
Simboli :   Temporali  Nebbia  Neve Forte  Precipitazioni Forti  Vento > 20 kt
SIGMETs :   Varie  Temporali  Ghiacco  Turbolenza  Onda orograficha  Ceneri Vulcaniche







- Altitudine del aeroporto : 184 ft
- Codice IATA : BRU


EBBR - Bruxelles

ULTIMO METAR :
  • 251220Z 33018KT 300V360 9999 SCT034 10/02 Q1027 NOSIG

METARs OBSOLETI :
  • 251150Z 32017KT 290V360 9999 BKN026 09/03 Q1027 NOSIG
  • 251120Z 33016KT 300V360 9999 FEW034 09/03 Q1027 NOSIG
  • 251050Z 33018KT 9999 SCT032 09/03 Q1026 NOSIG
  • 251020Z 33017G29KT 9999 FEW026 08/03 Q1026 NOSIG
  • 250950Z 33015KT 290V360 9999 FEW022 BKN027 07/03 Q1026 NOSIG

TAF TAF EBBR
Valido dal 25 a 12 ore il 26 a 18 ore UTC


251110Z 2512/2618 33015G25KT 9999 SCT030
BECMG 2517/2519 33009KT
Nessun NOTAM noto per questo aeroporto.



MetMap, La meteo Aeronautica in un colpo d'occhio ! - Copyright ORBIFLY Dicembre 2007 - Disclaimer

ORBIFLY MET'MAP TEAM :

Programmazione e sviluppo : Alexandra Zaïnal
Concezione e sviluppo : Baudouin d'Aumeries
Co-Programmazione e sviluppo : Marc-Olivier Méhu
Supporto tecnico e logistico : Manuel Goepfert
Aiuto per la traduzione : Arnaldo La Scala

Contatto : metmap@orbifly.com




FONTI E CREDITI :

   NOAA